createdAt,value
2023-02-19T00:00:17.004Z,6.74
2023-02-19T00:03:05.736Z,6.78
2023-02-19T00:05:35.966Z,6.87
2023-02-19T00:08:05.069Z,6.94
2023-02-19T00:10:33.857Z,7.00
2023-02-19T00:13:04.811Z,6.93
2023-02-19T00:15:34.071Z,6.90
2023-02-19T00:18:02.973Z,6.93
2023-02-19T00:20:31.827Z,6.97
2023-02-19T00:23:00.636Z,7.02
2023-02-19T00:25:29.471Z,7.08
2023-02-19T00:27:58.188Z,7.15
2023-02-19T00:30:27.078Z,7.21
2023-02-19T00:32:55.652Z,7.22
2023-02-19T00:35:24.596Z,7.26
2023-02-19T00:37:59.382Z,7.27
2023-02-19T00:40:28.037Z,7.30
2023-02-19T00:42:56.907Z,7.29
2023-02-19T00:45:25.757Z,7.24
2023-02-19T00:47:54.525Z,7.22
2023-02-19T00:50:23.473Z,7.20
2023-02-19T00:52:52.170Z,7.13
2023-02-19T00:55:20.971Z,7.02
2023-02-19T00:57:49.663Z,6.91
2023-02-19T01:00:18.557Z,6.83
2023-02-19T01:02:47.515Z,6.79
2023-02-19T01:05:16.313Z,6.78
2023-02-19T01:07:45.145Z,6.78
2023-02-19T01:10:14.033Z,6.79
2023-02-19T01:12:43.029Z,6.77
2023-02-19T01:15:11.905Z,6.76
2023-02-19T01:17:40.683Z,6.72
2023-02-19T01:20:10.254Z,6.69
2023-02-19T01:22:38.927Z,6.71
2023-02-19T01:25:08.381Z,6.73
2023-02-19T01:27:36.998Z,6.74
2023-02-19T01:30:06.271Z,6.74
2023-02-19T01:32:34.963Z,6.77
2023-02-19T01:35:03.747Z,6.79
2023-02-19T01:37:32.402Z,6.78
2023-02-19T01:40:01.089Z,6.74
2023-02-19T01:42:29.847Z,6.78
2023-02-19T01:45:30.392Z,6.79
2023-02-19T01:48:34.291Z,6.76
2023-02-19T01:51:11.376Z,6.75
2023-02-19T01:53:46.539Z,6.76
2023-02-19T01:56:19.129Z,6.80
2023-02-19T01:58:48.390Z,6.83
2023-02-19T02:01:17.151Z,6.79
2023-02-19T02:03:49.168Z,6.73
2023-02-19T02:06:34.569Z,6.67
2023-02-19T02:09:21.804Z,6.59
2023-02-19T02:11:53.383Z,6.49
2023-02-19T02:14:29.536Z,6.45
2023-02-19T02:17:20.354Z,6.41
2023-02-19T02:20:15.439Z,6.40
2023-02-19T02:22:49.424Z,6.41
2023-02-19T02:25:26.699Z,6.36
2023-02-19T02:28:21.953Z,6.37
2023-02-19T02:31:02.980Z,6.44
2023-02-19T02:33:47.533Z,6.60
2023-02-19T02:36:25.004Z,6.71
2023-02-19T02:38:55.649Z,6.71
2023-02-19T02:41:27.007Z,6.75
2023-02-19T02:43:56.156Z,6.79
2023-02-19T02:46:35.797Z,6.87
2023-02-19T02:49:10.614Z,6.89
2023-02-19T02:51:47.097Z,6.93
2023-02-19T02:54:47.035Z,6.95
2023-02-19T02:57:17.397Z,6.96
2023-02-19T02:59:49.610Z,6.97
2023-02-19T03:02:26.417Z,6.96
2023-02-19T03:05:28.252Z,6.96
2023-02-19T03:08:38.350Z,6.98
2023-02-19T03:11:29.102Z,6.92
2023-02-19T03:14:29.518Z,6.88
2023-02-19T03:17:35.119Z,6.86
2023-02-19T03:20:09.843Z,6.81
2023-02-19T03:22:40.927Z,6.76
2023-02-19T03:25:37.532Z,6.67
2023-02-19T03:28:11.169Z,6.59
2023-02-19T03:30:47.964Z,6.53
2023-02-19T03:33:22.497Z,6.51
2023-02-19T03:36:05.568Z,6.47
2023-02-19T03:38:44.812Z,6.48
2023-02-19T03:41:26.292Z,6.48
2023-02-19T03:44:30.809Z,6.44
2023-02-19T03:47:13.920Z,6.43
2023-02-19T03:50:28.530Z,6.39
2023-02-19T03:53:18.805Z,6.35
2023-02-19T03:56:38.422Z,6.32
2023-02-19T03:59:43.738Z,6.38
2023-02-19T04:02:20.440Z,6.39
2023-02-19T04:04:56.677Z,6.37
2023-02-19T04:07:27.638Z,6.40
2023-02-19T04:09:56.848Z,6.43
2023-02-19T04:12:25.827Z,6.41
2023-02-19T04:15:06.862Z,6.40
2023-02-19T04:17:59.814Z,6.41
2023-02-19T04:20:32.648Z,6.45
2023-02-19T04:23:01.299Z,6.50
2023-02-19T04:25:31.398Z,6.51
2023-02-19T04:28:00.488Z,6.50
2023-02-19T04:30:29.436Z,6.47
2023-02-19T04:32:58.177Z,6.45
2023-02-19T04:35:26.854Z,6.43
2023-02-19T04:37:55.373Z,6.39
2023-02-19T04:40:23.992Z,6.37
2023-02-19T04:42:53.439Z,6.38
2023-02-19T04:45:22.009Z,6.37
2023-02-19T04:47:50.590Z,6.35
2023-02-19T04:50:19.288Z,6.38
2023-02-19T04:52:47.888Z,6.40
2023-02-19T04:55:16.757Z,6.42
2023-02-19T04:57:45.424Z,6.37
2023-02-19T05:00:14.679Z,6.41
2023-02-19T05:02:43.219Z,6.41
2023-02-19T05:05:11.858Z,6.38
2023-02-19T05:07:40.379Z,6.38
2023-02-19T05:10:09.175Z,6.39
2023-02-19T05:12:37.872Z,6.38
2023-02-19T05:15:06.732Z,6.36
2023-02-19T05:17:35.751Z,6.39
2023-02-19T05:20:04.743Z,6.46
2023-02-19T05:22:33.324Z,6.42
2023-02-19T05:25:02.098Z,6.45
2023-02-19T05:27:31.770Z,6.45
2023-02-19T05:30:00.571Z,6.42
2023-02-19T05:32:29.276Z,6.40
2023-02-19T05:34:57.870Z,6.30
2023-02-19T05:37:26.417Z,6.25
2023-02-19T05:39:54.960Z,6.22
2023-02-19T05:42:23.603Z,6.20
2023-02-19T05:44:52.438Z,6.14
2023-02-19T05:47:21.023Z,6.06
2023-02-19T05:49:49.692Z,6.00
2023-02-19T05:52:18.349Z,6.01
2023-02-19T05:54:46.983Z,6.01
2023-02-19T05:57:15.592Z,6.03
2023-02-19T05:59:44.236Z,5.95
2023-02-19T06:02:12.932Z,5.98
2023-02-19T06:04:41.686Z,6.03
2023-02-19T06:07:10.316Z,6.05
2023-02-19T06:09:38.880Z,6.01
2023-02-19T06:12:08.293Z,6.05
2023-02-19T06:14:37.020Z,6.05
2023-02-19T06:17:05.565Z,6.06
2023-02-19T06:19:34.168Z,6.08
2023-02-19T06:22:02.933Z,6.09
2023-02-19T06:24:31.779Z,6.08
2023-02-19T06:27:00.508Z,6.00
2023-02-19T06:29:29.241Z,6.01
2023-02-19T06:31:58.175Z,6.06
2023-02-19T06:34:27.178Z,6.08
2023-02-19T06:36:57.816Z,6.05
2023-02-19T06:39:27.720Z,6.00
2023-02-19T06:41:57.849Z,6.01
2023-02-19T06:44:26.483Z,5.97
2023-02-19T06:46:56.171Z,5.94
2023-02-19T06:49:24.744Z,5.89
2023-02-19T06:51:53.568Z,5.82
2023-02-19T06:54:22.194Z,5.81
2023-02-19T06:56:50.749Z,5.79
2023-02-19T06:59:19.388Z,5.69
2023-02-19T07:01:48.089Z,5.67
2023-02-19T07:04:16.961Z,5.63
2023-02-19T07:06:45.754Z,5.64
2023-02-19T07:09:14.459Z,5.72
2023-02-19T07:11:43.090Z,5.69
2023-02-19T07:14:16.843Z,5.67
2023-02-19T07:16:47.549Z,5.70
2023-02-19T07:19:16.221Z,5.82
2023-02-19T07:21:44.789Z,5.94
2023-02-19T07:24:13.514Z,6.16
2023-02-19T07:26:42.672Z,6.37
2023-02-19T07:29:11.241Z,6.52
2023-02-19T07:31:40.059Z,6.73
2023-02-19T07:34:08.868Z,6.93
2023-02-19T07:36:37.873Z,7.16
2023-02-19T07:39:09.117Z,7.18
2023-02-19T07:41:38.899Z,7.25
2023-02-19T07:44:07.890Z,7.31
2023-02-19T07:46:36.574Z,7.33
2023-02-19T07:49:07.316Z,7.33
2023-02-19T07:51:36.033Z,7.36
2023-02-19T07:54:04.688Z,7.28
2023-02-19T07:56:33.351Z,7.18
2023-02-19T07:59:01.989Z,7.09
2023-02-19T08:02:29.663Z,6.95
2023-02-19T08:04:58.420Z,6.99
2023-02-19T08:07:35.491Z,6.97
2023-02-19T08:10:24.301Z,7.13
2023-02-19T08:13:19.105Z,7.36
2023-02-19T08:15:47.693Z,7.45
2023-02-19T08:18:17.552Z,7.48
2023-02-19T08:20:46.439Z,7.49
2023-02-19T08:23:15.393Z,7.45
2023-02-19T08:25:44.042Z,7.44
2023-02-19T08:28:13.245Z,7.42
2023-02-19T08:30:45.481Z,7.57
2023-02-19T08:33:17.758Z,7.75
2023-02-19T08:35:47.123Z,7.84
2023-02-19T08:38:18.830Z,7.69
2023-02-19T08:40:47.393Z,7.81
2023-02-19T08:43:17.815Z,7.96
2023-02-19T08:45:52.589Z,8.17
2023-02-19T08:48:21.432Z,8.49
2023-02-19T08:51:04.039Z,8.77
2023-02-19T08:53:33.201Z,8.72
2023-02-19T08:56:13.736Z,8.83
2023-02-19T08:58:43.045Z,9.04
2023-02-19T09:01:18.787Z,9.02
2023-02-19T09:03:47.689Z,8.97
2023-02-19T09:06:20.158Z,9.00
2023-02-19T09:08:49.054Z,9.02
2023-02-19T09:11:17.817Z,9.02
2023-02-19T09:13:46.603Z,8.98
2023-02-19T09:16:15.241Z,9.09
2023-02-19T09:18:46.043Z,8.95
2023-02-19T09:21:14.709Z,9.10
2023-02-19T09:23:43.359Z,8.62
2023-02-19T09:26:14.093Z,8.83
2023-02-19T09:28:43.309Z,9.01
2023-02-19T09:31:16.464Z,8.94
2023-02-19T09:33:47.677Z,8.89
2023-02-19T09:36:17.288Z,8.74
2023-02-19T09:38:46.091Z,8.97
2023-02-19T09:41:26.531Z,8.81
2023-02-19T09:43:55.935Z,8.81
2023-02-19T09:46:46.451Z,8.83
2023-02-19T09:49:25.717Z,8.96
2023-02-19T09:52:04.491Z,8.59
2023-02-19T09:54:34.345Z,8.64
2023-02-19T09:57:04.706Z,8.37
2023-02-19T10:00:04.777Z,8.88
2023-02-19T10:02:33.658Z,8.76
2023-02-19T10:05:04.040Z,8.82
2023-02-19T10:07:40.472Z,8.69
2023-02-19T10:10:14.540Z,8.81
2023-02-19T10:12:56.193Z,8.84
2023-02-19T10:15:38.387Z,8.62
2023-02-19T10:18:09.510Z,8.15
2023-02-19T10:20:40.568Z,8.14
2023-02-19T10:23:14.363Z,8.47
2023-02-19T10:25:58.069Z,8.87
2023-02-19T10:28:34.701Z,8.96
2023-02-19T10:31:12.079Z,9.01
2023-02-19T10:33:51.940Z,8.99
2023-02-19T10:36:39.160Z,8.76
2023-02-19T10:39:22.930Z,8.62
2023-02-19T10:41:54.718Z,9.01
2023-02-19T10:44:28.222Z,9.63
2023-02-19T10:47:00.142Z,9.87
2023-02-19T10:49:39.927Z,10.06
2023-02-19T10:52:27.051Z,9.80
2023-02-19T10:55:17.815Z,9.98
2023-02-19T10:57:47.243Z,10.10
2023-02-19T11:00:15.661Z,9.93
2023-02-19T11:02:45.301Z,10.08
2023-02-19T11:05:16.825Z,9.98
2023-02-19T11:07:56.229Z,9.68
2023-02-19T11:10:33.757Z,9.70
2023-02-19T11:13:06.563Z,9.77
2023-02-19T11:15:37.499Z,9.84
2023-02-19T11:18:33.161Z,9.83
2023-02-19T11:21:05.358Z,9.75
2023-02-19T11:23:47.343Z,9.70
2023-02-19T11:26:31.255Z,9.64
2023-02-19T11:29:11.382Z,9.57
2023-02-19T11:31:40.026Z,9.59
2023-02-19T11:34:14.646Z,9.54
2023-02-19T11:36:43.061Z,9.46
2023-02-19T11:39:17.502Z,9.36
2023-02-19T11:42:10.247Z,9.00
2023-02-19T11:44:56.851Z,8.88
2023-02-19T11:48:05.689Z,8.82
2023-02-19T11:51:10.849Z,8.85
2023-02-19T11:53:49.839Z,8.89
2023-02-19T11:56:34.142Z,8.92
2023-02-19T11:59:20.246Z,8.93
2023-02-19T12:01:54.468Z,8.87
2023-02-19T12:04:56.970Z,8.80
2023-02-19T12:08:09.673Z,8.75
2023-02-19T12:11:25.265Z,8.68
2023-02-19T12:14:08.403Z,8.69
2023-02-19T12:16:58.418Z,8.68
2023-02-19T12:20:11.544Z,8.68
2023-02-19T12:22:58.984Z,8.69
2023-02-19T12:25:51.456Z,8.70
2023-02-19T12:28:40.328Z,8.66
2023-02-19T12:31:49.404Z,8.61
2023-02-19T12:34:24.301Z,8.59
2023-02-19T12:37:24.918Z,8.59
2023-02-19T12:40:25.046Z,8.56
2023-02-19T12:43:24.628Z,8.49
2023-02-19T12:46:04.545Z,8.46
2023-02-19T12:48:53.718Z,8.45
2023-02-19T12:51:57.682Z,8.38
2023-02-19T12:54:44.597Z,8.39
2023-02-19T12:57:23.148Z,8.41
2023-02-19T13:00:10.552Z,8.42
2023-02-19T13:02:54.167Z,8.46
2023-02-19T13:05:48.347Z,8.47
2023-02-19T13:08:48.830Z,8.47
2023-02-19T13:11:31.475Z,8.43
2023-02-19T13:14:44.259Z,8.33
2023-02-19T13:17:51.532Z,8.21
2023-02-19T13:20:39.357Z,8.08
2023-02-19T13:23:55.398Z,7.99
2023-02-19T13:26:48.802Z,7.89
2023-02-19T13:29:53.374Z,7.83
2023-02-19T13:32:32.197Z,7.83
2023-02-19T13:35:39.279Z,7.82
2023-02-19T13:38:14.903Z,7.77
2023-02-19T13:40:55.163Z,7.75
2023-02-19T13:43:38.922Z,7.72
2023-02-19T13:46:11.012Z,7.74
2023-02-19T13:48:41.996Z,7.79
2023-02-19T13:51:13.676Z,7.84
2023-02-19T13:53:42.664Z,7.84
2023-02-19T13:56:35.651Z,7.84
2023-02-19T13:59:21.925Z,7.84
2023-02-19T14:01:51.605Z,7.83
2023-02-19T14:04:50.377Z,7.84
2023-02-19T14:07:18.831Z,7.84
2023-02-19T14:09:48.168Z,7.83
2023-02-19T14:12:16.668Z,7.75
2023-02-19T14:14:53.395Z,7.76
2023-02-19T14:17:42.202Z,7.75
2023-02-19T14:20:11.732Z,7.78
2023-02-19T14:22:51.645Z,7.83
2023-02-19T14:25:30.618Z,7.79
2023-02-19T14:28:15.072Z,7.75
2023-02-19T14:30:57.235Z,7.85
2023-02-19T14:33:36.225Z,8.04
2023-02-19T14:36:37.894Z,8.20
2023-02-19T14:39:12.810Z,8.19
2023-02-19T14:41:46.403Z,8.15
2023-02-19T14:44:25.095Z,8.25
2023-02-19T14:47:23.280Z,8.22
2023-02-19T14:49:59.265Z,8.43
2023-02-19T14:52:44.524Z,8.99
2023-02-19T14:55:32.987Z,9.19
2023-02-19T14:58:07.921Z,9.09
2023-02-19T15:00:42.140Z,8.83
2023-02-19T15:03:35.404Z,8.62
2023-02-19T15:06:16.578Z,8.44
2023-02-19T15:08:52.745Z,8.30
2023-02-19T15:11:26.352Z,8.35
2023-02-19T15:14:02.388Z,8.50
2023-02-19T15:16:35.904Z,8.30
2023-02-19T15:19:09.815Z,7.94
2023-02-19T15:21:46.652Z,7.78
2023-02-19T15:24:17.555Z,7.65
2023-02-19T15:26:54.406Z,7.55
2023-02-19T15:29:27.085Z,7.45
2023-02-19T15:32:01.223Z,7.30
2023-02-19T15:34:32.772Z,7.10
2023-02-19T15:37:08.407Z,6.92
2023-02-19T15:39:41.344Z,6.77
2023-02-19T15:42:16.935Z,6.67
2023-02-19T15:44:49.875Z,6.53
2023-02-19T15:47:34.885Z,6.41
2023-02-19T15:50:19.052Z,6.30
2023-02-19T15:53:23.834Z,6.15
2023-02-19T15:56:18.162Z,5.93
2023-02-19T15:58:53.234Z,5.79
2023-02-19T16:01:29.704Z,5.61
2023-02-19T16:03:59.042Z,5.50
2023-02-19T16:06:29.059Z,5.38
2023-02-19T16:09:06.046Z,5.25
2023-02-19T16:11:55.581Z,5.11
2023-02-19T16:14:25.640Z,4.93
2023-02-19T16:17:16.712Z,4.76
2023-02-19T16:20:02.411Z,4.62
2023-02-19T16:22:40.733Z,4.51
2023-02-19T16:25:30.762Z,4.42
2023-02-19T16:27:59.658Z,4.31
2023-02-19T16:30:34.165Z,4.22
2023-02-19T16:33:22.679Z,4.14
2023-02-19T16:35:52.581Z,4.11
2023-02-19T16:38:21.627Z,4.20
2023-02-19T16:40:54.305Z,4.31
2023-02-19T16:43:31.592Z,4.42
2023-02-19T16:46:01.807Z,4.56
2023-02-19T16:48:30.327Z,4.70
2023-02-19T16:50:59.692Z,4.82
2023-02-19T16:53:29.472Z,4.96
2023-02-19T16:55:58.011Z,5.08
2023-02-19T16:58:27.151Z,5.17
2023-02-19T17:00:56.286Z,5.25
2023-02-19T17:03:25.955Z,5.33
2023-02-19T17:05:54.595Z,5.43
2023-02-19T17:08:34.238Z,5.55
2023-02-19T17:11:06.767Z,5.66
2023-02-19T17:13:35.308Z,5.76
2023-02-19T17:16:04.402Z,5.86
2023-02-19T17:18:33.108Z,5.91
2023-02-19T17:21:23.073Z,5.94
2023-02-19T17:23:52.727Z,6.00
2023-02-19T17:26:28.238Z,6.09
2023-02-19T17:29:02.856Z,6.18
2023-02-19T17:31:31.900Z,6.29
2023-02-19T17:34:00.596Z,6.36
2023-02-19T17:36:32.605Z,6.40
2023-02-19T17:39:04.134Z,6.42
2023-02-19T17:41:33.192Z,6.42
2023-02-19T17:44:01.699Z,6.43
2023-02-19T17:46:30.189Z,6.49
2023-02-19T17:48:58.768Z,6.59
2023-02-19T17:51:27.247Z,6.69
2023-02-19T17:53:55.768Z,6.81
2023-02-19T17:56:26.722Z,6.92
2023-02-19T17:58:56.950Z,6.98
2023-02-19T18:01:25.478Z,7.00
2023-02-19T18:03:54.009Z,7.03
2023-02-19T18:06:22.593Z,7.36
2023-02-19T18:08:53.297Z,7.50
2023-02-19T18:11:23.066Z,7.35
2023-02-19T18:13:52.491Z,7.21
2023-02-19T18:16:22.402Z,7.06
2023-02-19T18:18:51.012Z,6.88
2023-02-19T18:21:19.646Z,6.71
2023-02-19T18:23:48.240Z,6.58
2023-02-19T18:26:21.613Z,6.49
2023-02-19T18:28:50.136Z,6.46
2023-02-19T18:31:18.913Z,6.41
2023-02-19T18:33:47.634Z,6.40
2023-02-19T18:36:16.454Z,6.45
2023-02-19T18:38:45.798Z,6.43
2023-02-19T18:41:14.842Z,6.47
2023-02-19T18:43:43.566Z,6.52
2023-02-19T18:46:12.377Z,6.60
2023-02-19T18:48:41.279Z,6.61
2023-02-19T18:51:11.658Z,6.62
2023-02-19T18:53:43.210Z,6.62
2023-02-19T18:56:11.829Z,6.66
2023-02-19T18:58:40.539Z,6.71
2023-02-19T19:01:09.549Z,6.72
2023-02-19T19:03:38.425Z,6.83
2023-02-19T19:06:07.464Z,6.90
2023-02-19T19:08:36.100Z,6.94
2023-02-19T19:11:04.818Z,6.98
2023-02-19T19:13:33.745Z,6.83
2023-02-19T19:16:02.533Z,6.60
2023-02-19T19:18:32.380Z,6.48
2023-02-19T19:21:03.710Z,6.20
2023-02-19T19:23:32.760Z,6.02
2023-02-19T19:26:07.276Z,5.85
2023-02-19T19:28:36.743Z,5.68
2023-02-19T19:31:05.944Z,5.50
2023-02-19T19:33:34.732Z,5.38
2023-02-19T19:36:06.946Z,5.32
2023-02-19T19:38:35.905Z,5.16
2023-02-19T19:41:06.415Z,5.06
2023-02-19T19:43:35.239Z,5.01
2023-02-19T19:46:04.526Z,4.95
2023-02-19T19:48:33.429Z,4.90
2023-02-19T19:51:02.303Z,4.80
2023-02-19T19:53:32.218Z,4.78
2023-02-19T19:56:01.907Z,4.67
2023-02-19T19:58:30.529Z,4.63
2023-02-19T20:01:01.854Z,4.49
2023-02-19T20:03:32.788Z,4.31
2023-02-19T20:06:02.670Z,4.13
2023-02-19T20:08:31.631Z,4.02
2023-02-19T20:11:00.234Z,3.93
2023-02-19T20:13:30.684Z,3.90
2023-02-19T20:15:59.432Z,3.87
2023-02-19T20:18:28.455Z,3.85
2023-02-19T20:20:57.031Z,3.78
2023-02-19T20:23:27.370Z,3.67
2023-02-19T20:25:57.764Z,3.51
2023-02-19T20:28:26.386Z,3.44
2023-02-19T20:30:55.300Z,3.44
2023-02-19T20:33:23.955Z,3.37
2023-02-19T20:35:52.480Z,3.30
2023-02-19T20:38:21.138Z,3.25
2023-02-19T20:40:49.728Z,3.20
2023-02-19T20:43:18.256Z,3.18
2023-02-19T20:45:47.935Z,3.16
2023-02-19T20:48:17.871Z,3.09
2023-02-19T20:50:46.397Z,3.03
2023-02-19T20:53:15.170Z,3.04
2023-02-19T20:55:43.732Z,3.05
2023-02-19T20:58:12.726Z,3.11
2023-02-19T21:00:41.374Z,3.03
2023-02-19T21:03:11.839Z,3.04
2023-02-19T21:05:41.601Z,2.99
2023-02-19T21:08:11.833Z,2.99
2023-02-19T21:10:40.722Z,2.93
2023-02-19T21:13:09.217Z,2.94
2023-02-19T21:15:37.760Z,2.96
2023-02-19T21:18:06.447Z,2.95
2023-02-19T21:20:35.148Z,2.92
2023-02-19T21:23:04.155Z,2.88
2023-02-19T21:25:33.333Z,2.84
2023-02-19T21:28:01.845Z,2.83
2023-02-19T21:30:30.390Z,2.86
2023-02-19T21:32:58.926Z,2.84
2023-02-19T21:35:28.102Z,2.83
2023-02-19T21:37:56.661Z,2.82
2023-02-19T21:40:25.959Z,2.83
2023-02-19T21:42:54.715Z,2.81
2023-02-19T21:45:23.536Z,2.84
2023-02-19T21:47:52.353Z,2.85
2023-02-19T21:50:22.724Z,2.84
2023-02-19T21:52:51.273Z,2.81
2023-02-19T21:55:20.670Z,2.79
2023-02-19T21:57:49.271Z,2.80
2023-02-19T22:00:18.380Z,2.78
2023-02-19T22:02:47.223Z,2.83
2023-02-19T22:05:16.520Z,2.78
2023-02-19T22:07:45.062Z,2.77
2023-02-19T22:10:15.447Z,2.75
2023-02-19T22:12:44.016Z,2.80
2023-02-19T22:15:13.034Z,2.79
2023-02-19T22:17:41.608Z,2.80
2023-02-19T22:20:10.419Z,2.79
2023-02-19T22:22:40.575Z,2.74
2023-02-19T22:25:09.238Z,2.72
2023-02-19T22:27:37.800Z,2.74
2023-02-19T22:30:07.363Z,2.62
2023-02-19T22:32:36.150Z,2.64
2023-02-19T22:35:04.842Z,2.64
2023-02-19T22:37:33.385Z,2.68
2023-02-19T22:40:02.079Z,2.64
2023-02-19T22:42:30.531Z,2.63
2023-02-19T22:44:59.007Z,2.63
2023-02-19T22:47:27.583Z,2.63
2023-02-19T22:49:56.032Z,2.56
2023-02-19T22:52:28.175Z,2.56
2023-02-19T22:54:56.884Z,2.58
2023-02-19T22:57:25.708Z,2.60
2023-02-19T22:59:54.230Z,2.57
2023-02-19T23:02:22.751Z,2.53
2023-02-19T23:04:51.370Z,2.48
2023-02-19T23:07:20.053Z,2.51
2023-02-19T23:09:49.119Z,2.50
2023-02-19T23:12:17.568Z,2.49
2023-02-19T23:14:47.100Z,2.44
2023-02-19T23:17:15.544Z,2.44
2023-02-19T23:19:44.134Z,2.38
2023-02-19T23:22:12.781Z,2.32
2023-02-19T23:24:41.226Z,2.28
2023-02-19T23:27:09.678Z,2.26
2023-02-19T23:29:38.198Z,2.23
2023-02-19T23:32:06.757Z,2.16
2023-02-19T23:34:35.423Z,2.15
2023-02-19T23:37:03.941Z,2.15
2023-02-19T23:39:32.855Z,2.08
2023-02-19T23:42:01.594Z,2.05
2023-02-19T23:44:30.176Z,2.06
2023-02-19T23:46:58.828Z,2.05
2023-02-19T23:49:27.411Z,2.01
2023-02-19T23:51:56.211Z,1.99
2023-02-19T23:54:24.908Z,1.99
2023-02-19T23:56:53.546Z,2.00
2023-02-19T23:59:22.121Z,1.97
